Time;durP1;ratioP1;P1;durP2;ratioP2;P2;SDS_P1;SDS_P2;PMS_P1;PMS_P2;Temp;Humidity;BMP_temperature;BMP_pressure;BME280_temperature;BME280_humidity;BME280_pressure;Samples;Min_cycle;Max_cycle;Signal;HPM_P1;HPM_P2
2023/03/29 00:00:51;;;;;;;;;;;;;;;;;;6245543;23;19927;-88
2023/03/29 00:03:20;;;;;;;;;;;;;;;;;;6244312;23;19920;-87
2023/03/29 00:05:48;;;;;;;;;;;;;;;;;;6220160;23;20385;-88
2023/03/29 00:08:23;;;;;;;;;;;;;;;;;;6221219;23;19924;-87
2023/03/29 00:10:57;;;;;;;;;;;;;;;;;;6220691;23;19920;-86
2023/03/29 00:13:25;;;;;;;;;;;;;;;;;;6243411;23;19928;-87
2023/03/29 00:15:53;;;;;;;;;;;;;;;;;;6245072;23;19926;-88
2023/03/29 00:18:25;;;;;;;;;;;;;;;;;;6220626;23;20267;-87
2023/03/29 00:20:55;;;;;;;;;;;;;;;;;;6219940;23;19924;-87
2023/03/29 00:23:23;;;;;;;;;;;;;;;;;;6218311;23;19923;-86
2023/03/29 00:28:42;;;;;;;;;;;;;;;;;;6222517;22;19920;-87
2023/03/29 00:31:10;;;;;;;;;;;;;;;;;;6164070;23;20441;-86
2023/03/29 00:33:39;;;;;;;;;;;;;;;;;;6188610;23;20196;-88
2023/03/29 00:36:09;;;;;;;;;;;;;;;;;;6187788;23;19920;-87
2023/03/29 00:38:39;;;;;;;;;;;;;;;;;;6197013;22;19947;-83
2023/03/29 00:41:08;;;;;;;;;;;;;;;;;;6252659;22;19919;-86
2023/03/29 00:43:55;;;;;;;;;;;;;;;;;;6251071;22;19923;-85
2023/03/29 00:46:22;;;;;;;;;;;;;;;;;;6315688;22;19930;-86
2023/03/29 00:48:50;;;;;;;;;;;;;;;;;;6268313;22;20267;-86
2023/03/29 00:51:20;;;;;;;;;;;;;;;;;;6247671;22;19942;-86
2023/03/29 00:53:48;;;;;;;;;;;;;;;;;;6246304;22;19930;-86
2023/03/29 00:56:18;;;;;;;;;;;;;;;;;;6247314;22;19955;-86
2023/03/29 00:58:50;;;;;;;;;;;;;;;;;;6248164;22;19926;-85
2023/03/29 01:01:19;;;;;;;;;;;;;;;;;;6221482;22;19919;-85
2023/03/29 01:03:48;;;;;;;;;;;;;;;;;;6256843;22;19919;-86
2023/03/29 01:06:18;;;;;;;;;;;;;;;;;;6257246;22;19919;-85
2023/03/29 01:08:49;;;;;;;;;;;;;;;;;;6221969;22;19927;-86
2023/03/29 01:11:17;;;;;;;;;;;;;;;;;;6247885;22;19919;-86
2023/03/29 01:13:46;;;;;;;;;;;;;;;;;;6244815;22;19919;-86
2023/03/29 01:16:13;;;;;;;;;;;;;;;;;;6220767;22;19919;-85
2023/03/29 01:18:45;;;;;;;;;;;;;;;;;;6222170;22;20234;-86
2023/03/29 01:21:18;;;;;;;;;;;;;;;;;;6247247;22;20370;-86
2023/03/29 01:23:52;;;;;;;;;;;;;;;;;;6257225;22;20271;-86
2023/03/29 01:26:23;;;;;;;;;;;;;;;;;;6256745;22;19923;-86
2023/03/29 01:28:55;;;;;;;;;;;;;;;;;;6254429;22;19945;-86
2023/03/29 01:31:23;;;;;;;;;;;;;;;;;;6274222;22;20343;-86
2023/03/29 01:33:51;;;;;;;;;;;;;;;;;;6222443;22;19919;-86
2023/03/29 01:36:20;;;;;;;;;;;;;;;;;;6273984;22;19927;-85
2023/03/29 01:38:49;;;;;;;;;;;;;;;;;;6246925;22;19919;-86
2023/03/29 01:41:19;;;;;;;;;;;;;;;;;;6221934;22;20487;-85
2023/03/29 01:43:47;;;;;;;;;;;;;;;;;;6221827;22;19934;-86
2023/03/29 01:46:17;;;;;;;;;;;;;;;;;;6247217;22;19930;-86
2023/03/29 01:48:47;;;;;;;;;;;;;;;;;;6222155;22;19926;-86
2023/03/29 01:51:17;;;;;;;;;;;;;;;;;;6246664;22;19946;-86
2023/03/29 01:53:48;;;;;;;;;;;;;;;;;;6247369;22;19926;-86
2023/03/29 01:56:18;;;;;;;;;;;;;;;;;;6258053;22;19925;-86
2023/03/29 01:58:49;;;;;;;;;;;;;;;;;;6222222;22;19926;-86
2023/03/29 02:01:18;;;;;;;;;;;;;;;;;;6245975;22;19919;-86
2023/03/29 02:03:48;;;;;;;;;;;;;;;;;;6221050;22;19920;-86
2023/03/29 02:06:16;;;;;;;;;;;;;;;;;;6221868;22;19920;-86
2023/03/29 02:08:43;;;;;;;;;;;;;;;;;;6221590;22;19919;-86
2023/03/29 02:11:10;;;;;;;;;;;;;;;;;;6246273;22;19938;-86
2023/03/29 02:13:39;;;;;;;;;;;;;;;;;;6220633;22;19919;-86
2023/03/29 02:16:08;;;;;;;;;;;;;;;;;;6247063;22;20252;-86
2023/03/29 02:18:36;;;;;;;;;;;;;;;;;;6248221;22;19924;-86
2023/03/29 02:21:03;;;;;;;;;;;;;;;;;;6248716;22;19942;-85
2023/03/29 02:23:33;;;;;;;;;;;;;;;;;;6223370;22;19931;-86
2023/03/29 02:26:05;;;;;;;;;;;;;;;;;;6248543;22;19923;-86
2023/03/29 02:28:32;;;;;;;;;;;;;;;;;;6223827;22;19919;-85
2023/03/29 02:31:01;;;;;;;;;;;;;;;;;;6275872;22;19930;-86
2023/03/29 02:33:31;;;;;;;;;;;;;;;;;;6248863;22;20359;-85
2023/03/29 02:36:00;;;;;;;;;;;;;;;;;;6248369;22;19923;-86
2023/03/29 02:38:28;;;;;;;;;;;;;;;;;;6223418;22;20271;-86
2023/03/29 02:40:55;;;;;;;;;;;;;;;;;;6223041;22;19919;-86
2023/03/29 02:43:25;;;;;;;;;;;;;;;;;;6222910;22;19923;-85
2023/03/29 02:45:52;;;;;;;;;;;;;;;;;;6222207;22;20390;-86
2023/03/29 02:48:22;;;;;;;;;;;;;;;;;;6248870;22;19927;-86
2023/03/29 02:50:54;;;;;;;;;;;;;;;;;;6259348;22;19926;-86
2023/03/29 02:53:24;;;;;;;;;;;;;;;;;;6247949;22;20255;-86
2023/03/29 02:55:52;;;;;;;;;;;;;;;;;;6248300;22;19919;-85
2023/03/29 02:58:27;;;;;;;;;;;;;;;;;;6248225;22;19919;-85
2023/03/29 03:00:56;;;;;;;;;;;;;;;;;;6258476;22;19926;-86
2023/03/29 03:03:24;;;;;;;;;;;;;;;;;;6223653;22;19919;-86
2023/03/29 03:05:57;;;;;;;;;;;;;;;;;;6258674;22;19930;-86
2023/03/29 03:08:25;;;;;;;;;;;;;;;;;;6245583;22;20362;-86
2023/03/29 03:10:54;;;;;;;;;;;;;;;;;;6223430;22;19931;-86
2023/03/29 03:13:21;;;;;;;;;;;;;;;;;;6223249;22;20362;-86
2023/03/29 03:15:51;;;;;;;;;;;;;;;;;;6222305;22;20255;-86
2023/03/29 03:18:20;;;;;;;;;;;;;;;;;;6246499;22;19919;-86
2023/03/29 03:20:54;;;;;;;;;;;;;;;;;;6249335;22;19920;-86
2023/03/29 03:23:21;;;;;;;;;;;;;;;;;;6223067;22;19919;-86
2023/03/29 03:25:52;;;;;;;;;;;;;;;;;;6222354;22;20366;-86
2023/03/29 03:28:20;;;;;;;;;;;;;;;;;;6221120;22;19919;-86
2023/03/29 03:30:53;;;;;;;;;;;;;;;;;;6256596;22;19926;-86
2023/03/29 03:33:23;;;;;;;;;;;;;;;;;;6284303;22;19926;-86
2023/03/29 03:36:09;;;;;;;;;;;;;;;;;;6285372;22;19923;-86
2023/03/29 03:38:38;;;;;;;;;;;;;;;;;;6222176;22;19926;-86
2023/03/29 03:41:07;;;;;;;;;;;;;;;;;;6254753;22;19919;-86
2023/03/29 03:43:37;;;;;;;;;;;;;;;;;;6257360;22;20588;-86
2023/03/29 03:46:04;;;;;;;;;;;;;;;;;;6222658;22;19919;-86
2023/03/29 03:48:32;;;;;;;;;;;;;;;;;;6222792;22;19926;-86
2023/03/29 03:51:08;;;;;;;;;;;;;;;;;;6257654;22;19926;-86
2023/03/29 03:53:37;;;;;;;;;;;;;;;;;;6221813;22;19919;-86
2023/03/29 03:56:12;;;;;;;;;;;;;;;;;;6285130;22;19919;-86
2023/03/29 03:58:57;;;;;;;;;;;;;;;;;;6281966;22;19923;-86
2023/03/29 04:01:26;;;;;;;;;;;;;;;;;;6221278;22;19926;-87
2023/03/29 04:04:03;;;;;;;;;;;;;;;;;;6221836;22;19919;-85
2023/03/29 04:06:33;;;;;;;;;;;;;;;;;;6223058;22;19928;-86
2023/03/29 04:09:36;;;;;;;;;;;;;;;;;;6237413;22;19923;-86
2023/03/29 04:12:23;;;;;;;;;;;;;;;;;;6247030;22;20260;-87
2023/03/29 04:14:51;;;;;;;;;;;;;;;;;;6248501;22;19919;-86
2023/03/29 04:17:22;;;;;;;;;;;;;;;;;;6221761;22;19926;-86
2023/03/29 04:19:49;;;;;;;;;;;;;;;;;;6248171;22;20236;-85
2023/03/29 04:22:19;;;;;;;;;;;;;;;;;;6246652;22;19942;-85
2023/03/29 04:24:49;;;;;;;;;;;;;;;;;;6222777;22;20267;-85
2023/03/29 04:27:38;;;;;;;;;;;;;;;;;;6273771;22;19919;-85
2023/03/29 04:30:14;;;;;;;;;;;;;;;;;;6248852;22;19946;-85
2023/03/29 04:33:01;;;;;;;;;;;;;;;;;;6252037;22;20319;-85
2023/03/29 04:35:29;;;;;;;;;;;;;;;;;;6222893;22;19923;-85
2023/03/29 04:37:56;;;;;;;;;;;;;;;;;;6248133;22;19919;-85
2023/03/29 04:40:25;;;;;;;;;;;;;;;;;;6248399;22;20228;-86
2023/03/29 04:43:19;;;;;;;;;;;;;;;;;;6220375;22;19927;-86
2023/03/29 04:45:55;;;;;;;;;;;;;;;;;;6223104;22;19919;-86
2023/03/29 04:48:40;;;;;;;;;;;;;;;;;;6247217;22;19927;-86
2023/03/29 04:51:08;;;;;;;;;;;;;;;;;;6248371;22;19919;-86
2023/03/29 04:53:35;;;;;;;;;;;;;;;;;;6272268;22;19923;-86
2023/03/29 04:56:05;;;;;;;;;;;;;;;;;;6222289;22;19971;-86
2023/03/29 04:58:56;;;;;;;;;;;;;;;;;;6263128;22;19920;-86
2023/03/29 05:01:23;;;;;;;;;;;;;;;;;;6222569;22;19919;-86
2023/03/29 05:03:57;;;;;;;;;;;;;;;;;;6258222;22;19946;-86
2023/03/29 05:06:30;;;;;;;;;;;;;;;;;;6257545;22;19942;-85
2023/03/29 05:08:57;;;;;;;;;;;;;;;;;;6223011;22;20263;-85
2023/03/29 05:11:32;;;;;;;;;;;;;;;;;;6258181;22;19920;-85
2023/03/29 05:14:06;;;;;;;;;;;;;;;;;;6247291;22;19927;-85
2023/03/29 05:16:34;;;;;;;;;;;;;;;;;;6257681;22;19927;-84
2023/03/29 05:19:03;;;;;;;;;;;;;;;;;;6274148;22;19926;-85
2023/03/29 05:21:34;;;;;;;;;;;;;;;;;;6246284;22;20358;-85
2023/03/29 05:24:06;;;;;;;;;;;;;;;;;;6256406;22;19927;-85
2023/03/29 05:27:02;;;;;;;;;;;;;;;;;;6251758;22;19927;-85
2023/03/29 05:29:34;;;;;;;;;;;;;;;;;;6223159;22;20351;-85
2023/03/29 05:32:21;;;;;;;;;;;;;;;;;;6257026;22;20344;-84
2023/03/29 05:34:51;;;;;;;;;;;;;;;;;;6222589;22;19920;-85
2023/03/29 05:37:21;;;;;;;;;;;;;;;;;;6221061;22;19919;-86
2023/03/29 05:39:55;;;;;;;;;;;;;;;;;;6248932;22;20366;-86
2023/03/29 05:42:27;;;;;;;;;;;;;;;;;;6253778;22;19924;-85
2023/03/29 05:45:02;;;;;;;;;;;;;;;;;;6278780;22;19923;-85
2023/03/29 05:47:32;;;;;;;;;;;;;;;;;;6248540;22;19977;-85
2023/03/29 05:49:59;;;;;;;;;;;;;;;;;;6241572;22;19931;-85
2023/03/29 05:52:28;;;;;;;;;;;;;;;;;;6222052;22;20366;-85
2023/03/29 05:54:58;;;;;;;;;;;;;;;;;;6259140;22;19926;-85
2023/03/29 05:57:26;;;;;;;;;;;;;;;;;;6258663;22;19926;-84
2023/03/29 05:59:58;;;;;;;;;;;;;;;;;;6250104;22;19919;-85
2023/03/29 06:02:28;;;;;;;;;;;;;;;;;;6248652;22;20445;-85
2023/03/29 06:04:56;;;;;;;;;;;;;;;;;;6223164;22;19919;-85
2023/03/29 06:07:23;;;;;;;;;;;;;;;;;;6276478;22;19923;-85
2023/03/29 06:10:13;;;;;;;;;;;;;;;;;;6272685;22;19920;-86
2023/03/29 06:12:48;;;;;;;;;;;;;;;;;;6249695;22;19926;-85
2023/03/29 06:15:15;;;;;;;;;;;;;;;;;;6222018;22;19923;-85
2023/03/29 06:17:48;;;;;;;;;;;;;;;;;;6223128;22;19919;-85
2023/03/29 06:20:18;;;;;;;;;;;;;;;;;;6277195;22;20343;-85
2023/03/29 06:22:49;;;;;;;;;;;;;;;;;;6258758;22;19923;-86
2023/03/29 06:25:19;;;;;;;;;;;;;;;;;;6248739;22;19927;-86
2023/03/29 06:27:48;;;;;;;;;;;;;;;;;;6249162;22;20247;-86
2023/03/29 06:30:19;;;;;;;;;;;;;;;;;;6220431;22;20343;-85
2023/03/29 06:32:54;;;;;;;;;;;;;;;;;;6259466;22;19926;-86
2023/03/29 06:36:02;;;;;;;;;;;;;;;;;;6152975;23;19927;-85
2023/03/29 06:41:26;;;;;;;;;;;;;;;;;;6245339;22;19920;-85
2023/03/29 06:44:27;;;;;;;;;;;;;;;;;;6161207;23;19935;-86
2023/03/29 06:47:05;;;;;;;;;;;;;;;;;;6188432;23;20267;-86
2023/03/29 06:49:34;;;;;;;;;;;;;;;;;;6223615;23;20448;-85
2023/03/29 06:52:24;;;;;;;;;;;;;;;;;;6177894;23;19920;-85
2023/03/29 06:54:52;;;;;;;;;;;;;;;;;;6188257;23;19919;-88
2023/03/29 06:57:20;;;;;;;;;;;;;;;;;;6187190;23;19920;-85
2023/03/29 06:59:47;;;;;;;;;;;;;;;;;;6214001;23;19939;-85
2023/03/29 07:02:22;;;;;;;;;;;;;;;;;;6164754;23;19920;-85
2023/03/29 07:05:05;;;;;;;;;;;;;;;;;;6164786;23;19920;-85
2023/03/29 07:07:52;;;;;;;;;;;;;;;;;;6191431;23;19926;-85
2023/03/29 07:10:39;;;;;;;;;;;;;;;;;;6165013;23;19920;-88
2023/03/29 07:13:25;;;;;;;;;;;;;;;;;;6189449;23;19920;-87
2023/03/29 07:15:53;;;;;;;;;;;;;;;;;;6164782;23;19920;-85
2023/03/29 07:18:36;;;;;;;;;;;;;;;;;;6165353;23;19965;-86
2023/03/29 07:21:06;;;;;;;;;;;;;;;;;;6189267;23;19924;-89
2023/03/29 07:23:33;;;;;;;;;;;;;;;;;;6185694;23;19920;-86
2023/03/29 07:26:01;;;;;;;;;;;;;;;;;;6188250;23;19920;-85
2023/03/29 07:28:28;;;;;;;;;;;;;;;;;;6187528;23;19927;-87
2023/03/29 07:31:01;;;;;;;;;;;;;;;;;;6187308;23;19919;-86
2023/03/29 07:33:30;;;;;;;;;;;;;;;;;;6187519;23;20267;-85
2023/03/29 07:36:02;;;;;;;;;;;;;;;;;;6187564;23;19924;-86
2023/03/29 07:38:44;;;;;;;;;;;;;;;;;;6162149;23;20315;-85
2023/03/29 07:41:17;;;;;;;;;;;;;;;;;;6207830;23;19920;-86
2023/03/29 07:43:50;;;;;;;;;;;;;;;;;;6186688;23;19920;-86
2023/03/29 07:46:25;;;;;;;;;;;;;;;;;;6187748;23;19924;-86
2023/03/29 07:48:55;;;;;;;;;;;;;;;;;;6212468;23;19920;-87
2023/03/29 07:51:25;;;;;;;;;;;;;;;;;;6187856;23;19928;-85
2023/03/29 07:54:05;;;;;;;;;;;;;;;;;;6185954;23;19927;-86
2023/03/29 07:56:42;;;;;;;;;;;;;;;;;;6212100;23;19920;-86
2023/03/29 07:59:12;;;;;;;;;;;;;;;;;;6212508;23;19920;-85
2023/03/29 08:02:07;;;;;;;;;;;;;;;;;;6212542;23;19919;-87
2023/03/29 08:04:38;;;;;;;;;;;;;;;;;;6212067;23;19920;-86
2023/03/29 08:07:26;;;;;;;;;;;;;;;;;;6213854;23;19935;-85
2023/03/29 08:10:16;;;;;;;;;;;;;;;;;;6214351;23;19927;-85
2023/03/29 08:13:06;;;;;;;;;;;;;;;;;;6197753;23;19926;-88
2023/03/29 08:15:46;;;;;;;;;;;;;;;;;;6187308;23;19920;-86
2023/03/29 08:18:27;;;;;;;;;;;;;;;;;;6184339;23;19920;-85
2023/03/29 08:20:56;;;;;;;;;;;;;;;;;;6212701;23;19920;-86
2023/03/29 08:23:26;;;;;;;;;;;;;;;;;;6186586;23;19927;-86
2023/03/29 08:28:41;;;;;;;;;;;;;;;;;;6209835;23;19920;-87
2023/03/29 08:31:09;;;;;;;;;;;;;;;;;;6187470;23;19920;-85
2023/03/29 08:33:42;;;;;;;;;;;;;;;;;;6211338;23;19923;-86
2023/03/29 08:36:46;;;;;;;;;;;;;;;;;;6143915;23;19927;-85
2023/03/29 08:39:25;;;;;;;;;;;;;;;;;;6244599;23;20287;-86
2023/03/29 08:42:15;;;;;;;;;;;;;;;;;;6186755;23;20267;-85
2023/03/29 08:44:49;;;;;;;;;;;;;;;;;;6163511;23;19920;-86
2023/03/29 08:47:24;;;;;;;;;;;;;;;;;;6161544;23;19927;-85
2023/03/29 08:49:53;;;;;;;;;;;;;;;;;;6160542;23;19943;-85
2023/03/29 08:52:33;;;;;;;;;;;;;;;;;;6162834;23;20263;-86
2023/03/29 08:55:13;;;;;;;;;;;;;;;;;;6187700;23;19920;-85
2023/03/29 08:58:08;;;;;;;;;;;;;;;;;;6187304;23;19923;-85
2023/03/29 09:00:37;;;;;;;;;;;;;;;;;;6188453;23;20359;-86
2023/03/29 09:03:07;;;;;;;;;;;;;;;;;;6163012;23;19968;-85
2023/03/29 09:05:38;;;;;;;;;;;;;;;;;;6189200;23;19931;-87
2023/03/29 09:08:12;;;;;;;;;;;;;;;;;;6163534;23;19926;-86
2023/03/29 09:10:43;;;;;;;;;;;;;;;;;;6163722;23;19927;-86
2023/03/29 09:13:15;;;;;;;;;;;;;;;;;;6186943;23;19924;-86
2023/03/29 09:15:43;;;;;;;;;;;;;;;;;;6187478;23;19927;-87
2023/03/29 09:18:25;;;;;;;;;;;;;;;;;;6162161;23;19920;-86
2023/03/29 09:21:00;;;;;;;;;;;;;;;;;;6187413;23;19920;-87
2023/03/29 09:23:37;;;;;;;;;;;;;;;;;;6187666;23;19931;-86
2023/03/29 09:26:22;;;;;;;;;;;;;;;;;;6191134;23;19924;-86
2023/03/29 09:29:08;;;;;;;;;;;;;;;;;;6169041;23;20385;-88
2023/03/29 09:31:39;;;;;;;;;;;;;;;;;;6166270;23;19920;-85
2023/03/29 09:34:10;;;;;;;;;;;;;;;;;;6165634;23;19920;-85
2023/03/29 09:37:20;;;;;;;;;;;;;;;;;;6191181;23;19927;-88
2023/03/29 09:40:14;;;;;;;;;;;;;;;;;;6192512;23;19924;-85
2023/03/29 09:45:48;;;;;;;;;;;;;;;;;;6161727;23;19924;-85
2023/03/29 09:48:38;;;;;;;;;;;;;;;;;;6187080;23;19920;-85
2023/03/29 09:51:07;;;;;;;;;;;;;;;;;;6193766;23;19926;-86
2023/03/29 09:53:38;;;;;;;;;;;;;;;;;;6165135;23;20131;-86
2023/03/29 09:56:18;;;;;;;;;;;;;;;;;;6188696;23;19920;-86
2023/03/29 09:58:53;;;;;;;;;;;;;;;;;;6224328;23;19920;-86
2023/03/29 10:01:25;;;;;;;;;;;;;;;;;;6167293;23;19920;-87
2023/03/29 10:03:53;;;;;;;;;;;;;;;;;;6163644;23;19926;-86
2023/03/29 10:06:26;;;;;;;;;;;;;;;;;;6164975;23;19927;-86
2023/03/29 10:08:58;;;;;;;;;;;;;;;;;;6189060;23;19934;-85
2023/03/29 10:11:35;;;;;;;;;;;;;;;;;;6165876;23;20275;-86
2023/03/29 10:14:07;;;;;;;;;;;;;;;;;;6190077;23;20252;-87
2023/03/29 10:16:54;;;;;;;;;;;;;;;;;;6190692;23;19927;-86
2023/03/29 10:19:22;;;;;;;;;;;;;;;;;;6230731;23;19924;-87
2023/03/29 10:21:50;;;;;;;;;;;;;;;;;;6191136;23;19920;-88
2023/03/29 10:24:21;;;;;;;;;;;;;;;;;;6216854;23;19924;-87
2023/03/29 10:26:52;;;;;;;;;;;;;;;;;;6191513;23;19920;-86
2023/03/29 10:29:19;;;;;;;;;;;;;;;;;;6225253;23;20244;-85
2023/03/29 10:31:48;;;;;;;;;;;;;;;;;;6213860;23;19919;-86
2023/03/29 10:34:15;;;;;;;;;;;;;;;;;;6189139;23;19924;-88
2023/03/29 10:36:52;;;;;;;;;;;;;;;;;;6190441;23;19927;-87
2023/03/29 10:39:19;;;;;;;;;;;;;;;;;;6200628;23;19920;-86
2023/03/29 10:41:49;;;;;;;;;;;;;;;;;;6212945;23;19931;-86
2023/03/29 10:44:26;;;;;;;;;;;;;;;;;;6215865;23;19920;-86
2023/03/29 10:46:55;;;;;;;;;;;;;;;;;;6216668;23;19920;-86
2023/03/29 10:49:25;;;;;;;;;;;;;;;;;;6215674;23;19924;-86
2023/03/29 10:51:52;;;;;;;;;;;;;;;;;;6215291;23;19919;-86
2023/03/29 10:54:20;;;;;;;;;;;;;;;;;;6214138;23;19927;-86
2023/03/29 10:56:49;;;;;;;;;;;;;;;;;;6216997;23;19928;-87
2023/03/29 10:59:35;;;;;;;;;;;;;;;;;;6216760;23;19930;-88
2023/03/29 11:02:22;;;;;;;;;;;;;;;;;;6191464;23;19920;-88
2023/03/29 11:04:55;;;;;;;;;;;;;;;;;;6214831;23;19927;-86
2023/03/29 11:07:26;;;;;;;;;;;;;;;;;;6190841;23;19924;-88
2023/03/29 11:09:59;;;;;;;;;;;;;;;;;;6191095;23;19924;-86
2023/03/29 11:12:33;;;;;;;;;;;;;;;;;;6225979;23;19927;-86
2023/03/29 11:15:16;;;;;;;;;;;;;;;;;;6214770;23;19927;-86
2023/03/29 11:17:50;;;;;;;;;;;;;;;;;;6190610;23;20273;-86
2023/03/29 11:20:21;;;;;;;;;;;;;;;;;;6215625;23;20526;-87
2023/03/29 11:22:52;;;;;;;;;;;;;;;;;;6214245;23;19920;-85
2023/03/29 11:25:34;;;;;;;;;;;;;;;;;;6237030;23;19924;-86
2023/03/29 11:28:04;;;;;;;;;;;;;;;;;;6213021;23;19920;-86
2023/03/29 11:30:54;;;;;;;;;;;;;;;;;;6213658;23;19920;-87
2023/03/29 11:33:30;;;;;;;;;;;;;;;;;;6183326;23;19924;-86
2023/03/29 11:36:08;;;;;;;;;;;;;;;;;;6185030;23;19924;-86
2023/03/29 11:39:06;;;;;;;;;;;;;;;;;;6180583;23;19923;-86
2023/03/29 11:41:34;;;;;;;;;;;;;;;;;;6209024;23;20260;-88
2023/03/29 11:44:02;;;;;;;;;;;;;;;;;;6209314;23;19943;-86
2023/03/29 11:46:30;;;;;;;;;;;;;;;;;;6185588;23;19920;-87
2023/03/29 11:48:59;;;;;;;;;;;;;;;;;;6184947;23;19925;-87
2023/03/29 11:51:31;;;;;;;;;;;;;;;;;;6186873;23;19920;-86
2023/03/29 11:54:12;;;;;;;;;;;;;;;;;;6183933;23;19920;-86
2023/03/29 11:56:45;;;;;;;;;;;;;;;;;;6157950;23;19920;-86
2023/03/29 11:59:23;;;;;;;;;;;;;;;;;;6158284;23;20295;-85
2023/03/29 12:01:54;;;;;;;;;;;;;;;;;;6183871;23;20268;-88
2023/03/29 12:04:22;;;;;;;;;;;;;;;;;;6184388;23;19935;-86
2023/03/29 12:06:52;;;;;;;;;;;;;;;;;;6194773;23;19924;-92
2023/03/29 12:09:23;;;;;;;;;;;;;;;;;;6224159;23;19919;-91
2023/03/29 12:19:56;;;;;;;;;;;;;;;;;;6222973;22;19928;-86
2023/03/29 12:22:27;;;;;;;;;;;;;;;;;;6134889;23;19920;-86
2023/03/29 12:24:54;;;;;;;;;;;;;;;;;;6162641;23;19927;-85
2023/03/29 12:27:25;;;;;;;;;;;;;;;;;;6166528;23;19920;-85
2023/03/29 12:30:11;;;;;;;;;;;;;;;;;;6166040;23;19927;-86
2023/03/29 12:32:42;;;;;;;;;;;;;;;;;;6140497;23;19920;-86
2023/03/29 12:35:30;;;;;;;;;;;;;;;;;;6186158;23;19928;-85
2023/03/29 12:38:18;;;;;;;;;;;;;;;;;;6158124;23;19920;-86
2023/03/29 12:41:12;;;;;;;;;;;;;;;;;;6158450;23;19931;-86
2023/03/29 12:44:01;;;;;;;;;;;;;;;;;;6191315;23;19927;-85
2023/03/29 12:46:46;;;;;;;;;;;;;;;;;;6157670;23;19920;-87
2023/03/29 12:49:15;;;;;;;;;;;;;;;;;;6156620;23;19920;-86
2023/03/29 12:51:42;;;;;;;;;;;;;;;;;;6183150;23;19920;-86
2023/03/29 12:54:14;;;;;;;;;;;;;;;;;;6157789;23;19928;-86
2023/03/29 12:56:54;;;;;;;;;;;;;;;;;;6156824;23;19931;-86
2023/03/29 12:59:25;;;;;;;;;;;;;;;;;;6156796;23;20267;-86
2023/03/29 13:01:59;;;;;;;;;;;;;;;;;;6193686;23;19927;-86
2023/03/29 13:04:37;;;;;;;;;;;;;;;;;;6132292;23;19953;-85
2023/03/29 13:07:04;;;;;;;;;;;;;;;;;;6184579;23;19920;-86
2023/03/29 13:09:47;;;;;;;;;;;;;;;;;;6158209;23;19928;-85
2023/03/29 13:12:19;;;;;;;;;;;;;;;;;;6132380;23;19924;-85
2023/03/29 13:14:46;;;;;;;;;;;;;;;;;;6133437;23;19985;-86
2023/03/29 13:17:19;;;;;;;;;;;;;;;;;;6158328;23;20272;-85
2023/03/29 13:19:47;;;;;;;;;;;;;;;;;;6160978;23;19924;-85
2023/03/29 13:22:20;;;;;;;;;;;;;;;;;;6157631;23;19928;-85
2023/03/29 13:25:00;;;;;;;;;;;;;;;;;;6183057;23;19920;-88
2023/03/29 13:27:29;;;;;;;;;;;;;;;;;;6158079;23;19920;-86
2023/03/29 13:30:00;;;;;;;;;;;;;;;;;;6157477;23;19924;-85
2023/03/29 13:32:38;;;;;;;;;;;;;;;;;;6181859;23;19927;-86
2023/03/29 13:37:52;;;;;;;;;;;;;;;;;;6184342;23;19920;-86
2023/03/29 13:40:40;;;;;;;;;;;;;;;;;;6157616;23;19976;-88
2023/03/29 13:43:12;;;;;;;;;;;;;;;;;;6157993;23;19928;-86
2023/03/29 13:45:40;;;;;;;;;;;;;;;;;;6182457;23;20344;-86
2023/03/29 13:48:21;;;;;;;;;;;;;;;;;;6156158;23;20370;-86
2023/03/29 13:50:55;;;;;;;;;;;;;;;;;;6158055;23;19927;-87
2023/03/29 13:53:24;;;;;;;;;;;;;;;;;;6193959;23;19920;-89
2023/03/29 13:55:54;;;;;;;;;;;;;;;;;;6158049;23;19927;-87
2023/03/29 13:58:26;;;;;;;;;;;;;;;;;;6156883;23;19927;-87
2023/03/29 14:00:54;;;;;;;;;;;;;;;;;;6192692;23;19924;-87
2023/03/29 14:03:28;;;;;;;;;;;;;;;;;;6157944;23;19931;-85
2023/03/29 14:05:58;;;;;;;;;;;;;;;;;;6156558;23;19921;-86
2023/03/29 14:08:26;;;;;;;;;;;;;;;;;;6157236;23;20517;-86
2023/03/29 14:10:53;;;;;;;;;;;;;;;;;;6182559;23;19920;-86
2023/03/29 14:13:22;;;;;;;;;;;;;;;;;;6159567;23;19927;-87
2023/03/29 14:15:53;;;;;;;;;;;;;;;;;;6157988;23;19924;-86
2023/03/29 14:18:24;;;;;;;;;;;;;;;;;;6160295;23;19924;-86
2023/03/29 14:20:53;;;;;;;;;;;;;;;;;;6184449;23;20237;-86
2023/03/29 14:23:25;;;;;;;;;;;;;;;;;;6159178;23;20252;-86
2023/03/29 14:26:06;;;;;;;;;;;;;;;;;;6183574;23;19947;-86
2023/03/29 14:28:36;;;;;;;;;;;;;;;;;;6158477;23;19927;-85
2023/03/29 14:31:16;;;;;;;;;;;;;;;;;;6185549;23;19927;-85
2023/03/29 14:33:43;;;;;;;;;;;;;;;;;;6157604;23;19924;-85
2023/03/29 14:36:12;;;;;;;;;;;;;;;;;;6159405;23;19924;-86
2023/03/29 14:38:40;;;;;;;;;;;;;;;;;;6183578;23;19920;-86
2023/03/29 14:41:09;;;;;;;;;;;;;;;;;;6158832;23;19928;-88
2023/03/29 14:43:38;;;;;;;;;;;;;;;;;;6127955;23;20225;-85
2023/03/29 14:46:07;;;;;;;;;;;;;;;;;;6128600;23;19920;-85
2023/03/29 14:48:40;;;;;;;;;;;;;;;;;;6163471;23;19940;-85
2023/03/29 14:51:09;;;;;;;;;;;;;;;;;;6153725;23;19921;-85
2023/03/29 14:53:41;;;;;;;;;;;;;;;;;;6128481;23;20267;-85
2023/03/29 14:56:10;;;;;;;;;;;;;;;;;;6152669;23;19969;-85
2023/03/29 14:58:38;;;;;;;;;;;;;;;;;;6152779;23;19925;-85
2023/03/29 15:01:14;;;;;;;;;;;;;;;;;;6154044;23;19921;-86
2023/03/29 15:03:42;;;;;;;;;;;;;;;;;;6128977;23;19931;-86
2023/03/29 15:06:15;;;;;;;;;;;;;;;;;;6129520;23;20348;-87
2023/03/29 15:08:44;;;;;;;;;;;;;;;;;;6153575;23;19920;-85
2023/03/29 15:11:13;;;;;;;;;;;;;;;;;;6153565;23;19924;-85
2023/03/29 15:13:40;;;;;;;;;;;;;;;;;;6129281;23;19929;-85
2023/03/29 15:16:11;;;;;;;;;;;;;;;;;;6129843;23;19927;-86
2023/03/29 15:18:40;;;;;;;;;;;;;;;;;;6128314;23;20379;-86
2023/03/29 15:21:08;;;;;;;;;;;;;;;;;;6153606;23;20340;-86
2023/03/29 15:23:37;;;;;;;;;;;;;;;;;;6128952;23;19921;-85
2023/03/29 15:26:09;;;;;;;;;;;;;;;;;;6153485;23;19920;-87
2023/03/29 15:28:45;;;;;;;;;;;;;;;;;;6155912;23;19921;-87
2023/03/29 15:31:15;;;;;;;;;;;;;;;;;;6155143;23;19920;-86
2023/03/29 15:33:42;;;;;;;;;;;;;;;;;;6129466;23;19925;-85
2023/03/29 15:36:12;;;;;;;;;;;;;;;;;;6153498;23;19931;-89
2023/03/29 15:38:42;;;;;;;;;;;;;;;;;;6152994;23;19925;-86
2023/03/29 15:41:12;;;;;;;;;;;;;;;;;;6152164;23;19928;-87
2023/03/29 15:43:42;;;;;;;;;;;;;;;;;;6128900;23;19925;-89
2023/03/29 15:46:11;;;;;;;;;;;;;;;;;;6152048;23;19921;-89
2023/03/29 15:48:39;;;;;;;;;;;;;;;;;;6151355;23;19944;-87
2023/03/29 15:51:07;;;;;;;;;;;;;;;;;;6127327;23;19928;-88
2023/03/29 15:53:36;;;;;;;;;;;;;;;;;;6166753;23;19920;-89
2023/03/29 15:56:05;;;;;;;;;;;;;;;;;;6177460;23;20399;-88
2023/03/29 15:58:32;;;;;;;;;;;;;;;;;;6176844;23;19921;-88
2023/03/29 16:01:01;;;;;;;;;;;;;;;;;;6153149;23;19921;-88
2023/03/29 16:03:28;;;;;;;;;;;;;;;;;;6154359;23;19921;-89
2023/03/29 16:05:57;;;;;;;;;;;;;;;;;;6155144;23;19921;-88
2023/03/29 16:08:24;;;;;;;;;;;;;;;;;;6154742;23;19924;-88
2023/03/29 16:10:51;;;;;;;;;;;;;;;;;;6153456;23;19925;-88
2023/03/29 16:13:18;;;;;;;;;;;;;;;;;;6176430;23;19950;-89
2023/03/29 16:15:45;;;;;;;;;;;;;;;;;;6152840;23;19965;-89
2023/03/29 16:18:13;;;;;;;;;;;;;;;;;;6155294;23;19920;-89
2023/03/29 16:20:40;;;;;;;;;;;;;;;;;;6154282;23;20338;-89
2023/03/29 16:23:08;;;;;;;;;;;;;;;;;;6153345;23;19931;-88
2023/03/29 16:25:37;;;;;;;;;;;;;;;;;;6178613;23;19927;-88
2023/03/29 16:28:06;;;;;;;;;;;;;;;;;;6163729;23;19921;-84
2023/03/29 16:30:34;;;;;;;;;;;;;;;;;;6154547;23;19957;-87
2023/03/29 16:33:06;;;;;;;;;;;;;;;;;;6151157;23;19927;-87
2023/03/29 16:35:36;;;;;;;;;;;;;;;;;;6186738;23;20341;-88
2023/03/29 16:38:04;;;;;;;;;;;;;;;;;;6152333;23;19921;-88
2023/03/29 16:40:33;;;;;;;;;;;;;;;;;;6153557;23;19932;-88
2023/03/29 16:43:00;;;;;;;;;;;;;;;;;;6152296;23;19924;-87
2023/03/29 16:45:29;;;;;;;;;;;;;;;;;;6152876;23;20376;-87
2023/03/29 16:47:56;;;;;;;;;;;;;;;;;;6153088;23;19931;-87
2023/03/29 16:50:23;;;;;;;;;;;;;;;;;;6154027;23;19928;-86
2023/03/29 16:52:51;;;;;;;;;;;;;;;;;;6150549;23;19920;-87
2023/03/29 16:55:18;;;;;;;;;;;;;;;;;;6155099;23;19921;-86
2023/03/29 16:57:47;;;;;;;;;;;;;;;;;;6152016;23;20337;-87
2023/03/29 17:00:15;;;;;;;;;;;;;;;;;;6155946;23;20341;-87
2023/03/29 17:02:42;;;;;;;;;;;;;;;;;;6155626;23;19928;-87
2023/03/29 17:05:10;;;;;;;;;;;;;;;;;;6155661;23;19921;-86
2023/03/29 17:07:38;;;;;;;;;;;;;;;;;;6154173;23;19921;-86
2023/03/29 17:10:08;;;;;;;;;;;;;;;;;;6165001;23;19920;-87
2023/03/29 17:12:35;;;;;;;;;;;;;;;;;;6152243;23;19928;-87
2023/03/29 17:15:03;;;;;;;;;;;;;;;;;;6153672;23;19920;-87
2023/03/29 17:17:30;;;;;;;;;;;;;;;;;;6154379;23;19921;-87
2023/03/29 17:19:57;;;;;;;;;;;;;;;;;;6153307;23;20250;-87
2023/03/29 17:22:26;;;;;;;;;;;;;;;;;;6151889;23;19921;-87
2023/03/29 17:24:56;;;;;;;;;;;;;;;;;;6153189;23;19921;-88
2023/03/29 17:27:25;;;;;;;;;;;;;;;;;;6154662;23;19925;-88
2023/03/29 17:29:52;;;;;;;;;;;;;;;;;;6177498;23;19932;-88
2023/03/29 17:32:20;;;;;;;;;;;;;;;;;;6155030;23;20333;-88
2023/03/29 17:34:47;;;;;;;;;;;;;;;;;;6152505;23;19920;-88
2023/03/29 17:37:17;;;;;;;;;;;;;;;;;;6154973;23;19921;-88
2023/03/29 17:39:44;;;;;;;;;;;;;;;;;;6163883;23;19928;-88
2023/03/29 17:42:11;;;;;;;;;;;;;;;;;;6153902;23;19928;-88
2023/03/29 17:44:38;;;;;;;;;;;;;;;;;;6153043;23;20355;-88